Time;durP1;ratioP1;P1;durP2;ratioP2;P2;SDS_P1;SDS_P2;PMS_P1;PMS_P2;Temp;Humidity;BMP_temperature;BMP_pressure;BME280_temperature;BME280_humidity;BME280_pressure;Samples;Min_cycle;Max_cycle;Signal;HPM_P1;HPM_P2
2023/07/23 00:02:07;;;;;;;8.35;3.17;;;;;16.60;100398.00;;;;10159898;29;20202;-78
2023/07/23 00:07:09;;;;;;;6.97;3.40;;;;;16.60;100378.00;;;;10165245;29;20198;-76
2023/07/23 00:12:10;;;;;;;6.03;3.47;;;;;16.50;100371.00;;;;10164010;29;20293;-77
2023/07/23 00:17:12;;;;;;;5.13;3.60;;;;;16.40;100360.00;;;;10162606;29;20218;-78
2023/07/23 00:22:13;;;;;;;5.35;3.17;;;;;16.40;100356.00;;;;10189796;28;20258;-77
2023/07/23 00:27:15;;;;;;;7.00;3.72;;;;;16.40;100344.00;;;;10166452;29;20294;-77
2023/07/23 00:32:17;;;;;;;6.00;3.35;;;;;16.40;100335.00;;;;10163938;28;20237;-78
2023/07/23 00:37:18;;;;;;;7.43;3.05;;;;;16.40;100333.00;;;;10164457;29;20207;-78
2023/07/23 00:42:20;;;;;;;7.65;3.45;;;;;16.30;100331.00;;;;10139223;29;20548;-76
2023/07/23 00:47:22;;;;;;;7.55;3.17;;;;;16.30;100322.00;;;;10160947;29;20298;-78
2023/07/23 00:52:24;;;;;;;8.20;3.83;;;;;16.30;100306.00;;;;10174147;29;20226;-78
2023/07/23 00:57:26;;;;;;;6.82;3.65;;;;;16.50;100309.00;;;;10164529;29;20295;-78
2023/07/23 01:02:27;;;;;;;5.53;3.60;;;;;16.70;100301.00;;;;10168545;29;20270;-78
2023/07/23 01:07:30;;;;;;;5.03;3.50;;;;;16.80;100292.00;;;;10164242;29;20924;-76
2023/07/23 01:12:32;;;;;;;5.75;3.42;;;;;16.90;100283.00;;;;10173915;29;20858;-77
2023/07/23 01:17:35;;;;;;;4.57;3.30;;;;;16.90;100280.00;;;;10169465;29;20223;-77
2023/07/23 01:22:37;;;;;;;5.13;2.90;;;;;16.90;100275.00;;;;10179246;29;20219;-77
2023/07/23 01:27:38;;;;;;;4.68;3.20;;;;;17.00;100269.00;;;;10166793;28;20211;-76
2023/07/23 01:32:41;;;;;;;5.60;3.13;;;;;17.00;100266.00;;;;10160369;29;20258;-77
2023/07/23 01:37:44;;;;;;;4.35;3.05;;;;;17.10;100257.00;;;;10176805;28;20294;-77
2023/07/23 01:42:46;;;;;;;3.70;2.65;;;;;17.20;100255.00;;;;10173713;29;20219;-78
2023/07/23 01:47:47;;;;;;;5.15;3.08;;;;;17.30;100242.00;;;;10170409;29;20207;-78
2023/07/23 01:52:48;;;;;;;4.40;2.90;;;;;17.40;100237.00;;;;10171173;29;20270;-76
2023/07/23 01:57:50;;;;;;;3.78;2.75;;;;;17.50;100243.00;;;;10162857;29;20213;-78
2023/07/23 02:02:51;;;;;;;5.25;2.97;;;;;17.50;100244.00;;;;10149466;29;20214;-76
2023/07/23 02:07:53;;;;;;;6.63;2.97;;;;;17.50;100234.00;;;;10174049;29;20233;-78
2023/07/23 02:12:54;;;;;;;3.85;2.80;;;;;17.60;100233.00;;;;10176667;29;20549;-77
2023/07/23 02:17:56;;;;;;;5.80;3.15;;;;;17.60;100236.00;;;;10171746;29;20209;-76
2023/07/23 02:22:57;;;;;;;6.07;2.83;;;;;17.70;100234.00;;;;10142030;29;20238;-78
2023/07/23 02:27:58;;;;;;;3.92;2.92;;;;;17.70;100234.00;;;;10176692;29;20202;-78
2023/07/23 02:33:00;;;;;;;5.63;2.70;;;;;17.80;100223.00;;;;10169000;29;20206;-78
2023/07/23 02:38:01;;;;;;;5.50;3.47;;;;;17.80;100216.00;;;;10168836;29;20211;-78
2023/07/23 02:43:02;;;;;;;3.42;2.75;;;;;17.80;100220.00;;;;10168548;29;20218;-78
2023/07/23 02:48:05;;;;;;;3.88;3.00;;;;;17.80;100225.00;;;;10171002;29;20744;-79
2023/07/23 02:53:07;;;;;;;6.53;2.97;;;;;17.80;100208.00;;;;10158461;29;20278;-78
2023/07/23 02:58:08;;;;;;;4.97;2.75;;;;;17.80;100209.00;;;;10159522;29;20211;-78
2023/07/23 03:03:10;;;;;;;5.78;2.80;;;;;17.80;100209.00;;;;10171235;29;20303;-75
2023/07/23 03:08:11;;;;;;;3.65;2.70;;;;;17.70;100217.00;;;;10186985;29;20198;-74
2023/07/23 03:13:13;;;;;;;4.45;2.40;;;;;17.80;100207.00;;;;10134245;29;20207;-75
2023/07/23 03:18:14;;;;;;;6.03;2.92;;;;;17.80;100197.00;;;;10167542;29;20223;-73
2023/07/23 03:23:16;;;;;;;11.10;2.90;;;;;17.80;100186.00;;;;10152668;29;20219;-73
2023/07/23 03:28:17;;;;;;;4.38;2.22;;;;;17.80;100189.00;;;;10168854;29;20216;-74
2023/07/23 03:33:18;;;;;;;3.30;2.53;;;;;17.80;100191.00;;;;10169281;29;20218;-74
2023/07/23 03:38:20;;;;;;;3.83;2.63;;;;;17.80;100179.00;;;;10172075;29;20217;-72
2023/07/23 03:43:21;;;;;;;4.88;2.80;;;;;17.80;100183.00;;;;10174243;29;20254;-72
2023/07/23 03:48:22;;;;;;;3.67;2.70;;;;;17.70;100183.00;;;;10163845;28;20209;-76
2023/07/23 03:53:24;;;;;;;2.63;2.40;;;;;17.70;100184.00;;;;10170256;29;20279;-74
2023/07/23 03:58:25;;;;;;;10.05;2.95;;;;;17.70;100183.00;;;;10165394;29;20195;-74
2023/07/23 04:03:27;;;;;;;10.48;2.70;;;;;17.70;100175.00;;;;10165858;29;20230;-73
2023/07/23 04:08:28;;;;;;;5.10;2.50;;;;;17.70;100178.00;;;;10158260;29;20751;-75
2023/07/23 04:13:30;;;;;;;3.13;2.50;;;;;17.70;100180.00;;;;10162887;29;20706;-74
2023/07/23 04:18:53;;;;;;;7.15;2.47;;;;;17.80;100182.00;;;;10162566;29;20209;-75
2023/07/23 04:23:58;;;;;;;5.05;2.35;;;;;17.80;100175.00;;;;10156827;29;20203;-75
2023/07/23 04:29:00;;;;;;;3.05;2.58;;;;;17.90;100174.00;;;;10158319;29;20203;-75
2023/07/23 04:34:02;;;;;;;4.63;2.78;;;;;17.90;100167.00;;;;10158054;29;20958;-76
2023/07/23 04:39:03;;;;;;;3.50;3.10;;;;;17.90;100172.00;;;;10168459;29;20203;-77
2023/07/23 04:44:05;;;;;;;4.32;2.80;;;;;17.80;100183.00;;;;10125833;29;20593;-73
2023/07/23 04:49:06;;;;;;;4.57;3.05;;;;;17.70;100186.00;;;;10153804;29;20214;-73
2023/07/23 04:54:07;;;;;;;4.53;3.33;;;;;17.50;100170.00;;;;10149101;29;20870;-76
2023/07/23 04:59:09;;;;;;;6.10;2.80;;;;;17.40;100179.00;;;;10159952;29;20728;-75
2023/07/23 05:04:10;;;;;;;5.20;3.17;;;;;17.40;100175.00;;;;10179068;28;20217;-74
2023/07/23 05:09:11;;;;;;;5.88;3.25;;;;;17.50;100179.00;;;;10157221;29;20198;-76
2023/07/23 05:14:13;;;;;;;6.45;3.28;;;;;17.70;100173.00;;;;10161176;29;20605;-76
2023/07/23 05:19:14;;;;;;;6.85;3.50;;;;;17.70;100183.00;;;;10162510;29;20207;-77
2023/07/23 05:24:15;;;;;;;7.40;3.65;;;;;17.80;100182.00;;;;10159580;29;20225;-77
2023/07/23 05:29:17;;;;;;;4.88;3.70;;;;;17.80;100179.00;;;;10168941;29;20213;-78
2023/07/23 05:34:18;;;;;;;5.93;3.67;;;;;17.80;100188.00;;;;10172917;29;20214;-76
2023/07/23 05:39:20;;;;;;;11.15;4.28;;;;;17.80;100177.00;;;;10158284;29;20674;-72
2023/07/23 05:44:21;;;;;;;5.30;3.90;;;;;17.90;100173.00;;;;10163506;29;20314;-73
2023/07/23 05:49:24;;;;;;;5.95;3.95;;;;;18.00;100178.00;;;;10161567;29;20732;-74
2023/07/23 05:54:25;;;;;;;7.28;3.90;;;;;18.10;100177.00;;;;10150272;29;20701;-73
2023/07/23 05:59:27;;;;;;;8.27;4.22;;;;;18.30;100187.00;;;;10177531;29;20203;-74
2023/07/23 06:04:28;;;;;;;7.50;4.57;;;;;18.40;100185.00;;;;10156728;29;20231;-74
2023/07/23 06:09:30;;;;;;;6.40;4.60;;;;;18.60;100195.00;;;;10145118;29;20207;-75
2023/07/23 06:14:31;;;;;;;6.47;4.75;;;;;18.60;100215.00;;;;10154136;29;21940;-74
2023/07/23 06:19:33;;;;;;;8.43;5.07;;;;;18.40;100212.00;;;;10165410;29;20203;-73
2023/07/23 06:24:34;;;;;;;6.63;5.32;;;;;18.40;100210.00;;;;10165156;29;20221;-75
2023/07/23 06:29:36;;;;;;;7.30;5.45;;;;;18.20;100216.00;;;;10152402;29;20199;-74
2023/07/23 06:34:37;;;;;;;8.00;5.68;;;;;17.90;100226.00;;;;10157952;29;20808;-74
2023/07/23 06:39:38;;;;;;;7.15;5.47;;;;;17.60;100223.00;;;;10149822;29;20684;-74
2023/07/23 06:44:40;;;;;;;6.43;5.30;;;;;17.20;100223.00;;;;10168708;28;20794;-73
2023/07/23 06:49:42;;;;;;;6.45;4.57;;;;;16.90;100217.00;;;;10179281;28;20241;-73
2023/07/23 06:54:43;;;;;;;7.55;5.22;;;;;16.90;100225.00;;;;10176254;29;20302;-74
2023/07/23 06:59:46;;;;;;;7.03;4.75;;;;;16.80;100225.00;;;;10180425;29;20800;-75
2023/07/23 07:04:47;;;;;;;5.80;4.57;;;;;16.80;100231.00;;;;10177887;28;20311;-74
2023/07/23 07:09:49;;;;;;;5.32;4.43;;;;;16.80;100228.00;;;;10159446;28;20258;-74
2023/07/23 07:14:50;;;;;;;6.65;4.43;;;;;17.00;100222.00;;;;10166900;29;20234;-75
2023/07/23 07:19:51;;;;;;;5.60;4.25;;;;;17.00;100231.00;;;;10166931;29;20203;-74
2023/07/23 07:24:53;;;;;;;5.78;3.92;;;;;17.20;100209.00;;;;10171665;28;20215;-75
2023/07/23 07:29:54;;;;;;;6.55;4.50;;;;;17.40;100218.00;;;;10159895;29;20290;-75
2023/07/23 07:34:56;;;;;;;6.68;4.65;;;;;17.40;100223.00;;;;10162063;29;20215;-75
2023/07/23 07:39:57;;;;;;;6.43;4.50;;;;;17.30;100222.00;;;;10164333;29;20237;-74
2023/07/23 07:44:58;;;;;;;5.25;3.58;;;;;17.10;100230.00;;;;10157424;29;20222;-75
2023/07/23 07:50:00;;;;;;;6.78;3.83;;;;;17.20;100214.00;;;;10158655;29;20240;-75
2023/07/23 07:55:01;;;;;;;6.55;4.32;;;;;17.30;100224.00;;;;10143400;29;20206;-75
2023/07/23 08:00:06;;;;;;;5.13;3.75;;;;;17.40;100233.00;;;;10157322;29;20615;-75
2023/07/23 08:05:12;;;;;;;5.47;3.80;;;;;17.70;100220.00;;;;10165115;29;20225;-75
2023/07/23 08:10:15;;;;;;;4.80;4.00;;;;;17.80;100229.00;;;;10142137;29;20909;-76
2023/07/23 08:15:17;;;;;;;6.82;4.05;;;;;18.00;100230.00;;;;10141427;29;20292;-75
2023/07/23 08:20:19;;;;;;;4.93;3.53;;;;;18.60;100227.00;;;;10157459;29;20930;-74
2023/07/23 08:25:20;;;;;;;4.80;3.80;;;;;19.30;100227.00;;;;10163754;28;20287;-75
2023/07/23 08:30:22;;;;;;;4.43;2.90;;;;;19.70;100227.00;;;;10165607;28;20215;-75
2023/07/23 08:35:25;;;;;;;4.97;3.42;;;;;19.70;100231.00;;;;10171274;29;20950;-75
2023/07/23 08:40:29;;;;;;;2.85;2.60;;;;;19.60;100231.00;;;;10160492;29;20292;-75
2023/07/23 08:45:48;;;;;;;3.00;2.65;;;;;19.50;100222.00;;;;10160411;29;20270;-75
2023/07/23 08:50:50;;;;;;;3.15;2.85;;;;;19.40;100225.00;;;;10165195;28;20211;-75
2023/07/23 08:55:52;;;;;;;3.50;3.20;;;;;19.40;100220.00;;;;10141348;29;20266;-75
2023/07/23 09:00:53;;;;;;;4.22;2.60;;;;;19.30;100229.00;;;;10151242;29;20290;-75
2023/07/23 09:05:55;;;;;;;3.20;2.53;;;;;19.00;100238.00;;;;10143918;29;20254;-75
2023/07/23 09:10:56;;;;;;;3.15;2.55;;;;;18.60;100238.00;;;;10164457;29;20862;-74
2023/07/23 09:15:58;;;;;;;3.33;3.03;;;;;18.40;100234.00;;;;10156904;29;20584;-75
2023/07/23 09:21:03;;;;;;;3.75;2.70;;;;;18.20;100246.00;;;;10162261;29;20210;-74
2023/07/23 09:26:08;;;;;;;5.15;3.47;;;;;18.20;100244.00;;;;10169933;29;20229;-75
2023/07/23 09:31:10;;;;;;;3.97;3.67;;;;;18.60;100248.00;;;;10151349;29;20585;-74
2023/07/23 09:36:11;;;;;;;4.50;4.10;;;;;19.00;100239.00;;;;10158268;28;20207;-74
2023/07/23 09:41:13;;;;;;;6.43;4.20;;;;;19.30;100250.00;;;;10159843;29;20207;-75
2023/07/23 09:46:14;;;;;;;5.65;4.75;;;;;19.90;100245.00;;;;10164591;29;20295;-74
2023/07/23 09:51:16;;;;;;;6.28;4.30;;;;;20.50;100235.00;;;;10170193;28;20211;-77
2023/07/23 09:56:20;;;;;;;5.00;3.88;;;;;20.80;100238.00;;;;10169869;29;20334;-76
2023/07/23 10:01:22;;;;;;;5.55;3.80;;;;;21.00;100228.00;;;;10160042;29;20275;-73
2023/07/23 10:06:24;;;;;;;5.38;4.03;;;;;21.30;100228.00;;;;10171211;29;20222;-76
2023/07/23 10:11:26;;;;;;;5.25;4.15;;;;;21.20;100224.00;;;;10156163;29;20207;-77
2023/07/23 10:16:33;;;;;;;5.63;3.83;;;;;21.60;100227.00;;;;10163366;29;20203;-76
2023/07/23 10:21:36;;;;;;;5.00;4.05;;;;;22.60;100226.00;;;;10166442;28;20263;-76
2023/07/23 10:26:47;;;;;;;6.05;4.30;;;;;24.70;100203.00;;;;10166870;28;20273;-78
2023/07/23 10:31:49;;;;;;;4.22;3.83;;;;;25.20;100212.00;;;;10162396;29;20215;-77
2023/07/23 10:37:14;;;;;;;4.15;3.35;;;;;25.20;100218.00;;;;10156926;29;20206;-76
2023/07/23 10:42:41;;;;;;;4.25;3.83;;;;;25.30;100215.00;;;;10153550;29;20281;-77
2023/07/23 10:47:57;;;;;;;4.07;3.60;;;;;25.50;100202.00;;;;10153823;29;20213;-77
2023/07/23 10:53:04;;;;;;;6.20;4.30;;;;;25.30;100215.00;;;;10153588;29;20696;-77
2023/07/23 10:58:11;;;;;;;7.25;3.85;;;;;25.10;100204.00;;;;10167050;29;20210;-77
2023/07/23 11:03:16;;;;;;;5.30;3.70;;;;;24.80;100208.00;;;;10154194;29;20227;-77
2023/07/23 11:08:20;;;;;;;4.95;4.07;;;;;24.80;100205.00;;;;10184999;28;20209;-77
2023/07/23 11:13:24;;;;;;;4.15;3.75;;;;;25.20;100200.00;;;;10151197;29;20191;-78
2023/07/23 11:18:30;;;;;;;4.53;3.83;;;;;25.70;100193.00;;;;10153088;29;20630;-77
2023/07/23 11:23:32;;;;;;;3.78;3.42;;;;;26.30;100205.00;;;;10147172;29;20227;-76
2023/07/23 11:28:34;;;;;;;3.97;3.40;;;;;26.80;100195.00;;;;10188468;28;20207;-78
2023/07/23 11:33:35;;;;;;;3.47;2.97;;;;;27.10;100210.00;;;;10185660;28;20676;-79
2023/07/23 11:38:37;;;;;;;4.65;3.20;;;;;27.50;100201.00;;;;10162892;29;20191;-81
2023/07/23 11:43:38;;;;;;;4.65;3.35;;;;;27.30;100208.00;;;;10163916;29;20226;-80
2023/07/23 11:48:43;;;;;;;6.00;3.22;;;;;26.20;100198.00;;;;10173098;28;20294;-77
2023/07/23 11:53:44;;;;;;;3.20;2.90;;;;;25.80;100200.00;;;;10162021;29;20262;-74
2023/07/23 11:58:46;;;;;;;3.92;3.40;;;;;26.10;100206.00;;;;10144516;29;20897;-77
2023/07/23 12:03:48;;;;;;;3.50;3.20;;;;;27.20;100198.00;;;;10158140;29;20222;-79
2023/07/23 12:08:51;;;;;;;5.25;3.17;;;;;27.40;100198.00;;;;10147975;29;20221;-78
2023/07/23 12:13:54;;;;;;;3.05;2.63;;;;;27.10;100194.00;;;;10152998;29;20471;-77
2023/07/23 12:19:09;;;;;;;3.38;2.70;;;;;26.90;100193.00;;;;10168172;29;20258;-79
2023/07/23 12:24:23;;;;;;;4.70;3.28;;;;;26.40;100194.00;;;;10168189;29;20226;-77
2023/07/23 12:29:26;;;;;;;3.55;3.17;;;;;26.30;100194.00;;;;10156878;29;20210;-80
2023/07/23 12:34:28;;;;;;;3.72;3.42;;;;;25.60;100193.00;;;;10163570;29;20477;-79
2023/07/23 12:39:29;;;;;;;4.75;3.15;;;;;25.20;100178.00;;;;10149728;29;20214;-76
2023/07/23 12:44:31;;;;;;;5.68;3.55;;;;;27.00;100182.00;;;;10151140;29;20957;-76
2023/07/23 12:49:32;;;;;;;3.35;3.05;;;;;28.70;100173.00;;;;10169368;29;20213;-75
2023/07/23 12:54:34;;;;;;;3.30;2.92;;;;;29.60;100175.00;;;;10148213;29;20241;-75
2023/07/23 12:59:35;;;;;;;5.38;3.05;;;;;28.20;100169.00;;;;10151123;29;20210;-73
2023/07/23 13:04:38;;;;;;;4.57;3.47;;;;;26.90;100166.00;;;;10170844;28;20219;-81
2023/07/23 13:09:39;;;;;;;4.10;3.38;;;;;26.00;100159.00;;;;10161584;29;20237;-79
2023/07/23 13:14:40;;;;;;;4.15;2.95;;;;;28.10;100172.00;;;;10165583;28;20234;-75
2023/07/23 13:19:42;;;;;;;4.95;3.50;;;;;29.20;100173.00;;;;10158976;29;20206;-80
2023/07/23 13:24:43;;;;;;;4.82;3.78;;;;;28.80;100159.00;;;;10175480;29;20377;-79
2023/07/23 13:29:45;;;;;;;4.35;4.00;;;;;27.60;100159.00;;;;10187037;28;20372;-78
2023/07/23 13:34:46;;;;;;;4.25;3.40;;;;;28.50;100155.00;;;;10150870;29;20836;-79
2023/07/23 13:39:48;;;;;;;4.32;3.90;;;;;29.90;100155.00;;;;10153816;29;20254;-76
2023/07/23 13:44:49;;;;;;;4.13;3.72;;;;;29.50;100143.00;;;;10178781;29;20641;-79
2023/07/23 13:49:50;;;;;;;6.43;3.45;;;;;29.00;100147.00;;;;10158921;29;20199;-80
2023/07/23 13:54:51;;;;;;;4.30;3.70;;;;;29.50;100152.00;;;;10186841;28;20324;-80
2023/07/23 13:59:53;;;;;;;3.38;3.08;;;;;29.00;100147.00;;;;10156596;29;20207;-74
2023/07/23 14:04:54;;;;;;;5.13;3.30;;;;;28.00;100158.00;;;;10153246;29;20588;-79
2023/07/23 14:09:57;;;;;;;4.53;3.08;;;;;27.10;100150.00;;;;10162595;29;20282;-74
2023/07/23 14:14:58;;;;;;;3.75;3.30;;;;;27.40;100141.00;;;;10158640;29;20222;-75
2023/07/23 14:20:00;;;;;;;3.85;2.92;;;;;26.60;100139.00;;;;10153455;29;20207;-75
2023/07/23 14:25:01;;;;;;;4.35;2.70;;;;;25.90;100138.00;;;;10175314;29;20266;-75
2023/07/23 14:30:03;;;;;;;3.63;3.00;;;;;26.60;100129.00;;;;10172411;29;20238;-76
2023/07/23 14:35:05;;;;;;;4.97;2.90;;;;;26.60;100127.00;;;;10154155;29;20215;-75
2023/07/23 14:40:07;;;;;;;4.57;2.88;;;;;26.20;100139.00;;;;10160443;29;20515;-73
2023/07/23 14:45:09;;;;;;;6.75;3.55;;;;;25.60;100128.00;;;;10187239;28;20210;-76
2023/07/23 14:50:10;;;;;;;3.83;2.90;;;;;25.90;100131.00;;;;10177235;29;20420;-82
2023/07/23 14:55:12;;;;;;;5.15;2.92;;;;;25.70;100144.00;;;;10159266;29;20223;-78
2023/07/23 15:00:13;;;;;;;3.05;2.50;;;;;25.00;100140.00;;;;10170848;29;20233;-80
2023/07/23 15:05:15;;;;;;;2.65;2.20;;;;;25.50;100134.00;;;;10161161;29;20203;-80
2023/07/23 15:10:16;;;;;;;4.45;2.20;;;;;25.70;100140.00;;;;10157487;28;20261;-75
2023/07/23 15:15:18;;;;;;;3.45;2.50;;;;;25.20;100134.00;;;;10154122;29;20222;-78
2023/07/23 15:20:19;;;;;;;2.53;2.33;;;;;24.60;100147.00;;;;10147048;29;20212;-83
2023/07/23 15:25:22;;;;;;;3.42;2.40;;;;;24.10;100149.00;;;;10155031;29;20203;-75
2023/07/23 15:30:24;;;;;;;3.00;2.28;;;;;23.40;100143.00;;;;10164962;29;20211;-75
2023/07/23 15:35:25;;;;;;;2.80;2.30;;;;;23.00;100149.00;;;;10166553;29;20611;-77
2023/07/23 15:40:27;;;;;;;4.60;2.22;;;;;22.70;100147.00;;;;10150094;29;20207;-75
2023/07/23 15:45:28;;;;;;;2.97;2.67;;;;;22.60;100144.00;;;;10169056;28;20205;-79
2023/07/23 15:50:29;;;;;;;2.88;2.35;;;;;22.40;100157.00;;;;10137292;29;20202;-76
2023/07/23 15:55:31;;;;;;;3.42;2.45;;;;;22.00;100156.00;;;;10159074;29;20399;-77
2023/07/23 16:00:32;;;;;;;3.25;2.28;;;;;21.40;100149.00;;;;10169865;28;20207;-76
2023/07/23 16:05:33;;;;;;;3.33;2.50;;;;;21.80;100157.00;;;;10175650;29;20214;-75
2023/07/23 16:10:35;;;;;;;3.05;2.30;;;;;22.40;100152.00;;;;10141547;29;20434;-76
2023/07/23 16:15:37;;;;;;;4.88;2.45;;;;;22.30;100161.00;;;;10179526;29;20415;-75
2023/07/23 16:20:38;;;;;;;2.38;2.17;;;;;21.30;100164.00;;;;10150418;29;20210;-81
2023/07/23 16:25:41;;;;;;;3.67;2.50;;;;;20.90;100150.00;;;;10179709;29;20297;-77
2023/07/23 16:30:42;;;;;;;3.38;2.97;;;;;20.30;100163.00;;;;10180022;29;20205;-78
2023/07/23 16:35:44;;;;;;;5.90;3.30;;;;;19.80;100169.00;;;;10159432;29;20222;-79
2023/07/23 16:40:46;;;;;;;7.28;4.28;;;;;19.60;100185.00;;;;10170626;29;20293;-77
2023/07/23 16:45:48;;;;;;;3.05;2.50;;;;;19.50;100172.00;;;;10149362;29;20266;-75
2023/07/23 16:50:49;;;;;;;3.42;2.22;;;;;19.40;100166.00;;;;10138672;29;20214;-75
2023/07/23 16:55:51;;;;;;;2.33;2.10;;;;;19.40;100153.00;;;;10143855;29;20233;-76
2023/07/23 17:00:52;;;;;;;4.55;2.85;;;;;19.40;100146.00;;;;10149211;29;20246;-74
2023/07/23 17:05:54;;;;;;;3.05;2.58;;;;;19.50;100134.00;;;;10143363;29;20622;-75
2023/07/23 17:10:58;;;;;;;3.55;2.55;;;;;19.70;100131.00;;;;10144672;29;20211;-74
2023/07/23 17:15:59;;;;;;;4.03;2.60;;;;;19.70;100123.00;;;;10151031;29;20306;-75
2023/07/23 17:21:01;;;;;;;2.63;2.28;;;;;19.50;100120.00;;;;10143668;29;20531;-77
2023/07/23 17:26:05;;;;;;;5.15;2.83;;;;;19.40;100116.00;;;;10174235;29;20684;-79
2023/07/23 17:31:07;;;;;;;3.40;2.70;;;;;19.30;100121.00;;;;10152282;29;20454;-74
2023/07/23 17:36:09;;;;;;;3.38;2.38;;;;;19.10;100120.00;;;;10158913;29;20227;-73
2023/07/23 17:41:10;;;;;;;4.90;3.15;;;;;19.00;100124.00;;;;10175574;29;20234;-74
2023/07/23 17:46:11;;;;;;;3.17;2.90;;;;;18.90;100121.00;;;;10161722;29;20218;-76
2023/07/23 17:51:12;;;;;;;3.38;3.08;;;;;18.90;100127.00;;;;10170715;29;20273;-73
2023/07/23 17:56:13;;;;;;;4.53;2.90;;;;;18.80;100118.00;;;;10159836;29;20225;-75
2023/07/23 18:01:15;;;;;;;3.85;3.33;;;;;18.70;100119.00;;;;10153578;29;20226;-76
2023/07/23 18:06:31;;;;;;;9.00;4.32;;;;;18.70;100113.00;;;;10142433;29;20444;-75
2023/07/23 18:11:33;;;;;;;5.82;3.85;;;;;18.70;100125.00;;;;10139183;29;20645;-75
2023/07/23 18:16:35;;;;;;;5.57;4.05;;;;;18.60;100141.00;;;;10158431;29;20244;-75
2023/07/23 18:21:36;;;;;;;5.72;3.83;;;;;18.60;100148.00;;;;10156899;29;20301;-75
2023/07/23 18:26:38;;;;;;;5.90;3.85;;;;;18.50;100149.00;;;;10156694;29;20195;-76
2023/07/23 18:31:39;;;;;;;6.30;3.63;;;;;18.50;100156.00;;;;10149692;29;20305;-75
2023/07/23 18:36:40;;;;;;;6.88;3.13;;;;;18.50;100147.00;;;;10157232;29;20677;-77
2023/07/23 18:41:41;;;;;;;4.97;2.35;;;;;18.40;100147.00;;;;10179787;29;20212;-76
2023/07/23 18:46:43;;;;;;;3.47;2.05;;;;;18.30;100150.00;;;;10157147;29;20975;-76
2023/07/23 18:51:45;;;;;;;8.25;1.95;;;;;18.00;100157.00;;;;10153757;29;20273;-76
2023/07/23 18:56:46;;;;;;;5.35;1.40;;;;;17.90;100148.00;;;;10167547;29;20231;-76
2023/07/23 19:01:48;;;;;;;3.10;1.80;;;;;17.80;100149.00;;;;10155833;29;20415;-78
2023/07/23 19:06:50;;;;;;;7.20;1.92;;;;;17.70;100141.00;;;;10142662;29;20199;-77
2023/07/23 19:11:51;;;;;;;3.75;1.65;;;;;17.60;100144.00;;;;10167515;29;20202;-75
2023/07/23 19:16:53;;;;;;;3.70;1.73;;;;;17.50;100147.00;;;;10166477;29;20217;-75
2023/07/23 19:21:55;;;;;;;3.70;2.00;;;;;17.50;100132.00;;;;10136016;29;20495;-76
2023/07/23 19:26:56;;;;;;;5.38;1.98;;;;;17.40;100117.00;;;;10143051;29;20208;-75
2023/07/23 19:31:57;;;;;;;2.55;1.63;;;;;17.50;100122.00;;;;10182304;28;20269;-75
2023/07/23 19:36:59;;;;;;;4.20;1.65;;;;;17.40;100122.00;;;;10124574;29;20215;-75
2023/07/23 19:42:00;;;;;;;2.88;2.03;;;;;17.40;100122.00;;;;10137094;29;20214;-75
2023/07/23 19:47:01;;;;;;;3.05;2.17;;;;;17.40;100134.00;;;;10166051;29;20371;-76
2023/07/23 19:52:03;;;;;;;7.10;2.35;;;;;17.40;100119.00;;;;10154169;29;20267;-78
2023/07/23 19:57:05;;;;;;;4.55;2.58;;;;;17.40;100120.00;;;;10178532;29;20222;-73
2023/07/23 20:02:06;;;;;;;3.25;2.40;;;;;17.40;100128.00;;;;10166308;29;20831;-73
2023/07/23 20:07:08;;;;;;;3.03;2.10;;;;;17.50;100133.00;;;;10168533;29;20227;-76
2023/07/23 20:12:09;;;;;;;3.65;2.17;;;;;17.50;100132.00;;;;10169639;28;20199;-75
2023/07/23 20:17:11;;;;;;;3.03;2.60;;;;;17.50;100144.00;;;;10155843;29;20297;-73
2023/07/23 20:22:12;;;;;;;4.97;2.83;;;;;17.50;100140.00;;;;10153507;29;20499;-74
2023/07/23 20:27:13;;;;;;;3.95;2.88;;;;;17.50;100136.00;;;;10161549;28;20206;-75
2023/07/23 20:32:15;;;;;;;4.03;3.00;;;;;17.50;100134.00;;;;10139504;29;20416;-79
2023/07/23 20:37:17;;;;;;;3.60;2.22;;;;;17.50;100137.00;;;;10153729;29;20245;-79
2023/07/23 20:42:18;;;;;;;3.55;2.30;;;;;17.50;100129.00;;;;10152298;29;20854;-82
2023/07/23 20:47:20;;;;;;;2.42;2.13;;;;;17.40;100129.00;;;;10160916;29;20194;-83
2023/07/23 20:52:21;;;;;;;3.83;1.85;;;;;17.40;100132.00;;;;10166013;29;20214;-83
2023/07/23 20:57:22;;;;;;;5.38;1.70;;;;;17.40;100138.00;;;;10160162;28;20724;-81
2023/07/23 21:02:24;;;;;;;2.03;1.42;;;;;17.50;100140.00;;;;10173952;29;20210;-85
2023/07/23 21:07:25;;;;;;;4.10;1.55;;;;;17.50;100128.00;;;;10164238;29;20203;-77
2023/07/23 21:12:27;;;;;;;4.30;2.08;;;;;17.50;100133.00;;;;10150794;29;20245;-75
2023/07/23 21:17:28;;;;;;;3.75;1.55;;;;;17.50;100118.00;;;;10137922;29;20223;-77
2023/07/23 21:22:29;;;;;;;1.65;1.50;;;;;17.40;100127.00;;;;10156271;29;20191;-79
2023/07/23 21:27:33;;;;;;;5.30;1.85;;;;;17.30;100130.00;;;;10158545;29;20203;-78
2023/07/23 21:32:35;;;;;;;3.80;1.65;;;;;17.30;100129.00;;;;10154409;29;20420;-78
2023/07/23 21:37:36;;;;;;;3.70;1.83;;;;;17.30;100123.00;;;;10157555;29;20223;-76
2023/07/23 21:42:38;;;;;;;3.95;1.73;;;;;17.30;100111.00;;;;10148265;29;20285;-77
2023/07/23 21:47:39;;;;;;;1.55;1.30;;;;;17.20;100101.00;;;;10150659;28;20857;-76
2023/07/23 21:52:41;;;;;;;2.88;2.13;;;;;17.10;100091.00;;;;10159049;28;20219;-76
2023/07/23 21:57:42;;;;;;;2.75;1.98;;;;;17.10;100086.00;;;;10149764;28;20466;-77
2023/07/23 22:02:44;;;;;;;6.63;2.95;;;;;17.10;100062.00;;;;10154842;29;20217;-75
2023/07/23 22:07:52;;;;;;;3.03;2.60;;;;;17.10;100058.00;;;;10160462;29;20274;-76
2023/07/23 22:12:53;;;;;;;4.45;2.90;;;;;17.10;100046.00;;;;10164804;28;20207;-75
2023/07/23 22:17:54;;;;;;;7.15;4.10;;;;;17.10;100039.00;;;;10154588;28;20724;-74
2023/07/23 22:22:56;;;;;;;7.40;5.03;;;;;17.10;100041.00;;;;10165265;29;20317;-74
2023/07/23 22:27:57;;;;;;;8.48;5.20;;;;;17.10;100036.00;;;;10168767;29;20206;-77
2023/07/23 22:32:59;;;;;;;7.47;4.78;;;;;17.10;100034.00;;;;10166179;29;20214;-73
2023/07/23 22:38:00;;;;;;;5.10;4.57;;;;;17.00;100030.00;;;;10152134;29;20225;-76
2023/07/23 22:43:02;;;;;;;5.70;4.82;;;;;16.90;100028.00;;;;10156053;29;20708;-75
2023/07/23 22:48:06;;;;;;;6.60;5.40;;;;;16.80;100026.00;;;;10169748;29;20285;-74
2023/07/23 22:53:09;;;;;;;10.68;5.60;;;;;16.70;100029.00;;;;10158883;29;20458;-75
2023/07/23 22:58:11;;;;;;;10.55;6.30;;;;;16.80;100030.00;;;;10152814;28;20219;-74
2023/07/23 23:03:12;;;;;;;11.60;5.85;;;;;16.80;100022.00;;;;10159674;29;20207;-71
2023/07/23 23:08:14;;;;;;;10.60;6.28;;;;;16.90;100022.00;;;;10168735;29;20234;-75
2023/07/23 23:13:15;;;;;;;11.43;5.75;;;;;16.90;100016.00;;;;10165874;28;20238;-75
2023/07/23 23:18:17;;;;;;;9.25;6.53;;;;;17.00;100005.00;;;;10162272;29;20219;-74
2023/07/23 23:23:18;;;;;;;11.82;6.50;;;;;17.00;99990.00;;;;10154744;29;20244;-73
2023/07/23 23:28:19;;;;;;;11.05;6.28;;;;;17.00;99994.00;;;;10151094;29;20213;-74
2023/07/23 23:33:20;;;;;;;9.52;5.60;;;;;17.00;99998.00;;;;10160323;29;20210;-73
2023/07/23 23:38:23;;;;;;;10.85;6.28;;;;;17.00;99989.00;;;;10143635;28;20606;-76
2023/07/23 23:43:24;;;;;;;12.77;6.30;;;;;17.00;99981.00;;;;10156673;29;20712;-76
2023/07/23 23:48:25;;;;;;;10.05;6.22;;;;;17.00;99969.00;;;;10159160;29;20557;-82
2023/07/23 23:53:27;;;;;;;14.73;6.63;;;;;17.00;99982.00;;;;10144395;29;20770;-80
2023/07/23 23:58:28;;;;;;;15.60;6.32;;;;;17.00;99966.00;;;;10153448;29;21000;-76
